Time;durP1;ratioP1;P1;durP2;ratioP2;P2;SDS_P1;SDS_P2;PMS_P1;PMS_P2;Temp;Humidity;BMP_temperature;BMP_pressure;BME280_temperature;BME280_humidity;BME280_pressure;Samples;Min_cycle;Max_cycle;Signal;HPM_P1;HPM_P2
2021/04/02 00:01:25;;;;;;;15.03;9.17;;;7.40;76.10;;;;;;5050216;28;20032;-73
2021/04/02 00:03:51;;;;;;;15.57;8.70;;;7.40;76.20;;;;;;5048554;28;20052;-74
2021/04/02 00:06:18;;;;;;;14.47;7.60;;;7.40;76.40;;;;;;5049206;28;20091;-74
2021/04/02 00:08:43;;;;;;;13.20;8.30;;;7.40;76.30;;;;;;5049752;28;20036;-74
2021/04/02 00:11:11;;;;;;;17.37;9.17;;;7.40;76.20;;;;;;5048752;28;20036;-74
2021/04/02 00:13:38;;;;;;;18.43;10.03;;;7.40;76.30;;;;;;5049872;28;20041;-74
2021/04/02 00:16:06;;;;;;;16.50;9.87;;;7.30;76.60;;;;;;5049896;28;20032;-74
2021/04/02 00:18:31;;;;;;;22.00;12.00;;;7.30;76.50;;;;;;5050169;28;20025;-78
2021/04/02 00:20:59;;;;;;;16.00;10.10;;;7.30;77.10;;;;;;5049557;28;20033;-74
2021/04/02 00:23:25;;;;;;;19.27;11.77;;;7.20;76.40;;;;;;5050145;28;20120;-73
2021/04/02 00:25:51;;;;;;;23.93;14.23;;;7.20;77.00;;;;;;5048083;28;20104;-73
2021/04/02 00:28:17;;;;;;;20.70;13.20;;;7.30;77.20;;;;;;5050079;28;20350;-73
2021/04/02 00:30:51;;;;;;;18.53;10.07;;;7.20;76.90;;;;;;5049397;28;20060;-73
2021/04/02 00:33:19;;;;;;;18.00;11.93;;;7.00;76.40;;;;;;5050369;28;20060;-73
2021/04/02 00:35:45;;;;;;;22.27;14.63;;;6.90;77.20;;;;;;5048088;28;20033;-74
2021/04/02 00:38:11;;;;;;;21.43;11.20;;;6.80;77.60;;;;;;5049848;28;20036;-73
2021/04/02 00:40:43;;;;;;;28.90;16.13;;;6.80;77.70;;;;;;5049247;28;20051;-77
2021/04/02 00:43:10;;;;;;;24.93;14.73;;;6.80;78.00;;;;;;5050059;28;20056;-74
2021/04/02 00:45:36;;;;;;;28.47;17.37;;;6.90;77.90;;;;;;5048888;28;20040;-78
2021/04/02 00:48:03;;;;;;;28.97;16.43;;;6.90;78.30;;;;;;5058261;28;20099;-72
2021/04/02 00:50:29;;;;;;;24.50;13.97;;;7.00;78.20;;;;;;5070510;28;20025;-73
2021/04/02 00:52:54;;;;;;;23.27;14.10;;;6.90;78.00;;;;;;5069317;28;20078;-74
2021/04/02 00:55:20;;;;;;;30.70;18.07;;;6.90;78.10;;;;;;5070397;28;20029;-72
2021/04/02 00:57:46;;;;;;;27.03;16.47;;;7.00;78.40;;;;;;5066649;28;20028;-72
2021/04/02 01:00:13;;;;;;;21.23;12.83;;;7.10;78.40;;;;;;5056258;28;20057;-74
2021/04/02 01:02:39;;;;;;;23.13;12.53;;;7.00;77.90;;;;;;5049592;28;20062;-76
2021/04/02 01:05:18;;;;;;;14.80;8.90;;;7.00;78.00;;;;;;5049210;28;20033;-73
2021/04/02 01:07:52;;;;;;;22.77;11.20;;;7.00;77.50;;;;;;5048956;28;20111;-72
2021/04/02 01:10:18;;;;;;;17.17;8.70;;;7.00;78.30;;;;;;5047898;28;20029;-72
2021/04/02 01:12:45;;;;;;;14.60;7.43;;;7.00;77.50;;;;;;5048083;28;20037;-73
2021/04/02 01:15:32;;;;;;;17.20;9.93;;;6.80;77.10;;;;;;5050046;28;20049;-73
2021/04/02 01:18:00;;;;;;;17.57;9.60;;;6.80;77.50;;;;;;5048929;28;20057;-74
2021/04/02 01:20:31;;;;;;;21.17;9.00;;;6.80;77.90;;;;;;5049331;28;20028;-73
2021/04/02 01:23:01;;;;;;;13.60;7.57;;;6.80;77.70;;;;;;5048299;28;20075;-72
2021/04/02 01:25:58;;;;;;;15.37;8.10;;;6.70;77.50;;;;;;5050004;28;20067;-72
2021/04/02 01:28:49;;;;;;;12.97;7.73;;;6.60;77.80;;;;;;5048983;28;20032;-72
2021/04/02 01:31:15;;;;;;;18.30;7.27;;;6.60;77.60;;;;;;5029489;28;20091;-73
2021/04/02 01:33:41;;;;;;;15.80;7.47;;;6.60;77.70;;;;;;5040051;28;20033;-74
2021/04/02 01:36:10;;;;;;;13.20;6.90;;;6.50;77.60;;;;;;5048457;28;20037;-73
2021/04/02 01:38:38;;;;;;;10.23;6.13;;;6.40;77.90;;;;;;5049849;28;20044;-73
2021/04/02 01:41:09;;;;;;;17.00;6.23;;;6.40;77.90;;;;;;5047217;28;20044;-73
2021/04/02 01:43:41;;;;;;;12.07;6.10;;;6.40;77.90;;;;;;5047531;28;20053;-72
2021/04/02 01:46:08;;;;;;;10.37;5.73;;;6.40;78.00;;;;;;5048465;28;20338;-73
2021/04/02 01:48:35;;;;;;;13.63;6.30;;;6.40;78.10;;;;;;5049222;28;20469;-73
2021/04/02 01:51:03;;;;;;;10.90;6.80;;;6.30;78.10;;;;;;5050659;28;20032;-72
2021/04/02 01:53:33;;;;;;;15.23;6.67;;;6.40;78.40;;;;;;5057106;28;20111;-73
2021/04/02 01:55:59;;;;;;;11.93;5.47;;;6.40;78.30;;;;;;5052848;28;20029;-73
2021/04/02 01:58:26;;;;;;;16.73;6.27;;;6.30;78.40;;;;;;5052890;28;20063;-73
2021/04/02 02:00:56;;;;;;;9.90;4.53;;;6.20;78.20;;;;;;5051172;28;20029;-73
2021/04/02 02:03:23;;;;;;;14.40;5.47;;;6.10;78.30;;;;;;5051788;28;20533;-74
2021/04/02 02:05:51;;;;;;;13.30;6.20;;;6.10;78.80;;;;;;5052515;28;20037;-78
2021/04/02 02:08:18;;;;;;;12.57;5.33;;;6.10;79.00;;;;;;5051672;28;20037;-73
2021/04/02 02:10:47;;;;;;;9.53;5.90;;;6.20;78.90;;;;;;5052975;28;20040;-74
2021/04/02 02:13:14;;;;;;;13.80;5.60;;;6.10;79.20;;;;;;5052896;28;20401;-73
2021/04/02 02:15:41;;;;;;;14.03;6.37;;;6.20;78.90;;;;;;5051601;28;20492;-72
2021/04/02 02:18:12;;;;;;;8.83;5.03;;;6.20;79.00;;;;;;5051762;28;20032;-72
2021/04/02 02:20:40;;;;;;;13.80;5.87;;;6.30;78.70;;;;;;5052860;28;20048;-73
2021/04/02 02:23:07;;;;;;;12.87;6.07;;;6.20;78.80;;;;;;5051744;28;20037;-73
2021/04/02 02:25:34;;;;;;;12.47;5.40;;;6.20;78.90;;;;;;5052484;28;20044;-73
2021/04/02 02:28:00;;;;;;;10.00;5.20;;;6.20;78.60;;;;;;5052197;28;20036;-73
2021/04/02 02:30:29;;;;;;;11.17;5.63;;;6.10;78.60;;;;;;5052529;28;20404;-73
2021/04/02 02:32:55;;;;;;;10.90;5.20;;;6.20;79.10;;;;;;5051676;28;20041;-72
2021/04/02 02:35:22;;;;;;;15.30;5.70;;;6.20;79.00;;;;;;5051658;28;20041;-74
2021/04/02 02:37:48;;;;;;;11.00;5.33;;;6.20;78.70;;;;;;5050584;28;20448;-72
2021/04/02 02:40:21;;;;;;;7.87;4.77;;;6.20;78.80;;;;;;5051040;28;20032;-73
2021/04/02 02:42:49;;;;;;;9.07;4.47;;;6.20;78.60;;;;;;5050340;28;20037;-74
2021/04/02 02:45:15;;;;;;;11.07;5.00;;;6.20;78.60;;;;;;5051214;28;20021;-73
2021/04/02 02:47:41;;;;;;;14.27;5.13;;;6.20;78.80;;;;;;5051827;28;20025;-74
2021/04/02 02:50:14;;;;;;;9.43;4.83;;;6.20;78.90;;;;;;5049724;28;20021;-74
2021/04/02 02:52:41;;;;;;;9.13;4.07;;;6.20;79.10;;;;;;5051701;28;20090;-73
2021/04/02 02:55:09;;;;;;;11.13;5.00;;;6.20;78.70;;;;;;5049723;28;20133;-74
2021/04/02 02:57:36;;;;;;;11.40;5.47;;;6.20;79.00;;;;;;5051614;28;20481;-74
2021/04/02 03:00:11;;;;;;;13.57;4.97;;;6.40;78.90;;;;;;5051030;28;20044;-76
2021/04/02 03:02:38;;;;;;;8.93;5.07;;;6.40;78.80;;;;;;5051598;28;20024;-74
2021/04/02 03:05:06;;;;;;;11.27;4.93;;;6.50;78.30;;;;;;5050844;28;20473;-74
2021/04/02 03:07:35;;;;;;;12.67;4.50;;;6.50;78.50;;;;;;5050343;28;20115;-75
2021/04/02 03:10:03;;;;;;;9.80;4.10;;;6.60;78.20;;;;;;5049313;28;20037;-75
2021/04/02 03:12:30;;;;;;;10.60;4.60;;;6.50;77.70;;;;;;5051861;28;20397;-74
2021/04/02 03:14:55;;;;;;;9.57;4.80;;;6.50;77.80;;;;;;5033653;28;20515;-78
2021/04/02 03:17:23;;;;;;;12.07;5.10;;;6.40;78.00;;;;;;5049572;28;20025;-75
2021/04/02 03:19:50;;;;;;;9.57;3.60;;;6.50;78.00;;;;;;5051296;28;20122;-74
2021/04/02 03:22:18;;;;;;;9.13;4.33;;;6.50;77.80;;;;;;5035330;28;20032;-74
2021/04/02 03:24:47;;;;;;;10.90;4.53;;;6.40;77.70;;;;;;5051610;28;20060;-74
2021/04/02 03:27:13;;;;;;;11.93;4.27;;;6.40;77.90;;;;;;5050457;28;20170;-72
2021/04/02 03:29:39;;;;;;;10.23;4.93;;;6.60;78.10;;;;;;5050859;28;20485;-73
2021/04/02 03:32:11;;;;;;;11.73;4.30;;;6.60;78.00;;;;;;5050744;28;20066;-73
2021/04/02 03:34:38;;;;;;;10.70;3.47;;;6.70;78.00;;;;;;5050115;28;20029;-73
2021/04/02 03:37:10;;;;;;;10.87;3.87;;;6.70;77.60;;;;;;5050306;28;20102;-73
2021/04/02 03:39:40;;;;;;;9.47;3.70;;;6.80;77.50;;;;;;5050911;28;20029;-73
2021/04/02 03:42:09;;;;;;;8.53;3.90;;;6.80;77.30;;;;;;5045581;28;20056;-73
2021/04/02 03:44:37;;;;;;;9.33;3.60;;;6.90;77.30;;;;;;5050631;28;20133;-73
2021/04/02 03:47:08;;;;;;;9.50;3.50;;;6.90;77.20;;;;;;5050395;28;20024;-77
2021/04/02 03:49:35;;;;;;;9.03;3.17;;;6.90;77.20;;;;;;5049975;28;20021;-73
2021/04/02 03:52:06;;;;;;;8.93;3.40;;;7.00;77.00;;;;;;5049099;28;20556;-78
2021/04/02 03:54:33;;;;;;;7.07;3.73;;;6.90;76.80;;;;;;5050988;28;20036;-73
2021/04/02 03:57:00;;;;;;;9.70;3.27;;;6.90;76.90;;;;;;5049552;28;20037;-74
2021/04/02 03:59:28;;;;;;;8.53;3.60;;;6.90;76.90;;;;;;5066346;28;20025;-73
2021/04/02 04:01:55;;;;;;;7.47;2.90;;;6.80;77.10;;;;;;5069111;28;20515;-74
2021/04/02 04:04:24;;;;;;;8.53;3.40;;;6.90;77.30;;;;;;5068738;28;20124;-73
2021/04/02 04:06:54;;;;;;;11.47;3.47;;;6.90;76.90;;;;;;5070852;28;20024;-74
2021/04/02 04:09:22;;;;;;;9.77;3.37;;;6.90;76.70;;;;;;5056318;28;20536;-74
2021/04/02 04:11:49;;;;;;;10.90;2.97;;;6.80;77.10;;;;;;5050246;28;20033;-74
2021/04/02 04:14:16;;;;;;;8.83;3.50;;;6.70;76.60;;;;;;5049821;28;20033;-73
2021/04/02 04:16:43;;;;;;;12.03;2.77;;;6.60;77.40;;;;;;5032643;28;20036;-73
2021/04/02 04:19:10;;;;;;;9.57;3.30;;;6.70;77.10;;;;;;5048375;28;20029;-75
2021/04/02 04:21:39;;;;;;;8.33;3.03;;;6.60;77.40;;;;;;5050183;28;20036;-73
2021/04/02 04:24:07;;;;;;;8.40;3.37;;;6.60;77.90;;;;;;5050397;28;20094;-76
2021/04/02 04:26:34;;;;;;;7.93;3.00;;;6.80;77.70;;;;;;5049946;28;20051;-72
2021/04/02 04:29:02;;;;;;;9.07;3.17;;;6.90;77.60;;;;;;5051066;28;20067;-73
2021/04/02 04:31:30;;;;;;;9.27;2.50;;;7.00;77.00;;;;;;5048437;28;20461;-74
2021/04/02 04:33:59;;;;;;;7.27;2.77;;;7.00;76.80;;;;;;5048938;28;20029;-72
2021/04/02 04:36:25;;;;;;;10.97;3.07;;;7.00;77.00;;;;;;5049475;28;20029;-73
2021/04/02 04:38:53;;;;;;;7.60;2.30;;;7.20;77.10;;;;;;5049626;28;20388;-73
2021/04/02 04:41:21;;;;;;;6.77;2.90;;;7.00;76.10;;;;;;5048025;28;20033;-73
2021/04/02 04:43:49;;;;;;;9.30;2.50;;;7.10;76.80;;;;;;5049845;28;20061;-73
2021/04/02 04:46:16;;;;;;;8.87;2.27;;;7.10;76.80;;;;;;5049407;28;20075;-74
2021/04/02 04:48:42;;;;;;;7.43;2.17;;;7.20;76.20;;;;;;5050450;28;20109;-74
2021/04/02 04:51:09;;;;;;;8.40;2.63;;;7.10;76.40;;;;;;5048702;28;20029;-76
2021/04/02 04:53:38;;;;;;;7.70;2.30;;;7.10;76.60;;;;;;5049056;28;20041;-75
2021/04/02 04:56:06;;;;;;;6.87;2.70;;;7.00;76.50;;;;;;5049728;28;20032;-75
2021/04/02 04:58:33;;;;;;;9.70;2.30;;;7.00;76.20;;;;;;5031555;28;20362;-74
2021/04/02 05:01:04;;;;;;;10.23;2.50;;;6.80;76.30;;;;;;5050080;28;20853;-74
2021/04/02 05:03:32;;;;;;;10.53;2.10;;;6.80;76.50;;;;;;5049274;28;20029;-73
2021/04/02 05:05:59;;;;;;;7.40;2.20;;;6.80;76.90;;;;;;5048486;28;20041;-74
2021/04/02 05:08:40;;;;;;;9.40;2.90;;;6.80;76.80;;;;;;5044816;28;20138;-75
2021/04/02 05:11:11;;;;;;;7.03;2.03;;;6.80;77.10;;;;;;5041888;28;20131;-74
2021/04/02 05:13:39;;;;;;;7.10;2.50;;;6.70;77.00;;;;;;5044456;28;20057;-73
2021/04/02 05:16:05;;;;;;;13.80;3.13;;;6.70;77.10;;;;;;5049472;28;20033;-74
2021/04/02 05:18:33;;;;;;;11.03;2.40;;;6.60;77.40;;;;;;5048715;28;20033;-73
2021/04/02 05:20:59;;;;;;;10.00;2.50;;;6.60;77.70;;;;;;5048614;28;20091;-74
2021/04/02 05:23:25;;;;;;;8.70;2.10;;;6.70;77.20;;;;;;5048604;28;20041;-73
2021/04/02 05:25:51;;;;;;;9.40;2.07;;;6.80;77.50;;;;;;5052072;28;20035;-72
2021/04/02 05:28:17;;;;;;;9.90;2.37;;;6.90;77.40;;;;;;5052823;28;20029;-77
2021/04/02 05:30:42;;;;;;;6.47;2.50;;;6.90;76.90;;;;;;5053739;28;20063;-72
2021/04/02 05:33:08;;;;;;;10.63;3.17;;;6.70;77.00;;;;;;5051742;28;20477;-74
2021/04/02 05:35:34;;;;;;;10.23;2.47;;;6.50;77.10;;;;;;5052720;28;20033;-73
2021/04/02 05:38:00;;;;;;;8.37;3.00;;;6.30;77.50;;;;;;5052932;28;20155;-73
2021/04/02 05:40:26;;;;;;;9.43;2.97;;;6.40;78.20;;;;;;5052977;28;20029;-74
2021/04/02 05:43:08;;;;;;;7.93;2.70;;;6.50;78.40;;;;;;5053278;28;20401;-73
2021/04/02 05:45:37;;;;;;;9.17;2.23;;;6.50;77.70;;;;;;5052457;28;20124;-73
2021/04/02 05:48:04;;;;;;;7.53;2.03;;;6.80;78.00;;;;;;5051407;28;20119;-73
2021/04/02 05:50:31;;;;;;;10.37;2.63;;;7.10;77.80;;;;;;5052622;28;20040;-72
2021/04/02 05:53:05;;;;;;;5.93;2.20;;;7.20;76.70;;;;;;5052894;28;20029;-73
2021/04/02 05:55:37;;;;;;;9.27;2.40;;;7.00;76.40;;;;;;5052269;28;20036;-75
2021/04/02 05:58:04;;;;;;;7.40;1.97;;;7.20;77.00;;;;;;5051586;28;20025;-75
2021/04/02 06:00:31;;;;;;;9.47;2.57;;;7.10;76.10;;;;;;5052521;28;20124;-74
2021/04/02 06:02:58;;;;;;;12.10;3.00;;;7.10;76.90;;;;;;5053001;28;20040;-74
2021/04/02 06:05:24;;;;;;;6.70;1.73;;;6.90;76.70;;;;;;5050903;28;20033;-75
2021/04/02 06:07:51;;;;;;;10.00;2.37;;;6.70;77.20;;;;;;5052630;28;20063;-74
2021/04/02 06:10:16;;;;;;;9.63;2.40;;;6.60;77.70;;;;;;5052434;28;20025;-76
2021/04/02 06:12:42;;;;;;;9.37;2.27;;;6.80;77.90;;;;;;5051791;28;20073;-74
2021/04/02 06:15:09;;;;;;;12.33;2.73;;;6.80;77.30;;;;;;5052653;28;20377;-74
2021/04/02 06:17:57;;;;;;;12.07;2.93;;;6.70;77.20;;;;;;5052044;28;20540;-73
2021/04/02 06:20:28;;;;;;;13.27;2.90;;;6.70;77.70;;;;;;5051890;28;20028;-79
2021/04/02 06:23:17;;;;;;;8.43;3.00;;;6.70;78.00;;;;;;5050807;28;20196;-74
2021/04/02 06:26:04;;;;;;;12.77;3.20;;;7.00;78.30;;;;;;5051676;28;20021;-75
2021/04/02 06:28:31;;;;;;;11.50;3.60;;;6.80;77.70;;;;;;5049996;28;20025;-75
2021/04/02 06:30:57;;;;;;;13.83;3.50;;;6.70;77.60;;;;;;5052290;28;20052;-74
2021/04/02 06:33:32;;;;;;;11.57;4.17;;;6.30;78.40;;;;;;5050974;28;20509;-77
2021/04/02 06:35:58;;;;;;;12.20;3.80;;;6.30;79.00;;;;;;5050229;28;20021;-74
2021/04/02 06:38:32;;;;;;;13.77;5.23;;;6.40;79.30;;;;;;5052162;28;20029;-79
2021/04/02 06:41:03;;;;;;;14.07;4.23;;;6.50;79.30;;;;;;5047018;28;20025;-75
2021/04/02 06:43:48;;;;;;;14.60;4.80;;;6.50;79.10;;;;;;5046137;28;20092;-79
2021/04/02 06:46:18;;;;;;;13.87;4.83;;;6.50;78.60;;;;;;5050593;28;20043;-73
2021/04/02 06:48:44;;;;;;;11.33;4.17;;;6.40;79.00;;;;;;5049504;28;20063;-73
2021/04/02 06:51:17;;;;;;;10.87;4.80;;;6.60;79.50;;;;;;5047061;28;20075;-74
2021/04/02 06:53:45;;;;;;;13.97;4.70;;;6.70;78.70;;;;;;5046330;28;20037;-73
2021/04/02 06:56:13;;;;;;;12.93;4.83;;;6.40;78.80;;;;;;5046307;28;20039;-73
2021/04/02 06:58:40;;;;;;;13.10;4.63;;;6.50;79.40;;;;;;5047475;28;20029;-75
2021/04/02 07:01:07;;;;;;;11.13;4.23;;;6.60;79.20;;;;;;5043863;28;20120;-73
2021/04/02 07:03:33;;;;;;;14.73;4.63;;;6.60;78.90;;;;;;5045390;28;20040;-80
2021/04/02 07:06:06;;;;;;;11.23;3.97;;;6.80;79.10;;;;;;5060960;28;20025;-74
2021/04/02 07:08:34;;;;;;;10.68;3.83;;;6.60;78.40;;;;;;5055087;28;20074;-77
2021/04/02 07:11:00;;;;;;;14.07;5.13;;;6.60;79.00;;;;;;5046795;28;20017;-74
2021/04/02 07:13:30;;;;;;;12.53;4.70;;;6.60;78.80;;;;;;5046042;28;20032;-73
2021/04/02 07:15:57;;;;;;;13.23;4.87;;;6.50;78.80;;;;;;5045033;28;20548;-74
2021/04/02 07:18:25;;;;;;;7.97;4.73;;;6.60;79.20;;;;;;5045678;28;20032;-74
2021/04/02 07:20:50;;;;;;;12.07;4.70;;;6.30;78.50;;;;;;5044662;28;20086;-74
2021/04/02 07:23:16;;;;;;;17.67;8.23;;;6.20;79.20;;;;;;5046365;28;20045;-75
2021/04/02 07:25:43;;;;;;;12.70;6.07;;;6.00;79.70;;;;;;5045266;28;21455;-74
2021/04/02 07:28:10;;;;;;;13.50;5.67;;;6.10;80.30;;;;;;5047852;28;20035;-74
2021/04/02 07:30:37;;;;;;;14.23;8.07;;;6.20;80.50;;;;;;5045596;28;20493;-77
2021/04/02 07:33:09;;;;;;;14.13;6.90;;;6.40;80.60;;;;;;5044771;28;20029;-74
2021/04/02 07:35:38;;;;;;;16.47;6.63;;;6.70;79.50;;;;;;5044216;28;20033;-78
2021/04/02 07:38:09;;;;;;;16.07;8.30;;;6.80;79.10;;;;;;5046776;28;20033;-74
2021/04/02 07:40:36;;;;;;;16.67;6.77;;;6.70;78.60;;;;;;5044357;28;20032;-77
2021/04/02 07:43:06;;;;;;;16.93;8.00;;;6.50;78.70;;;;;;5046046;28;20503;-75
2021/04/02 07:45:35;;;;;;;18.30;7.40;;;6.30;79.10;;;;;;5046021;28;20021;-75
2021/04/02 07:48:21;;;;;;;18.27;7.17;;;6.20;79.50;;;;;;5043435;28;20035;-74
2021/04/02 07:51:01;;;;;;;18.50;7.57;;;6.00;79.90;;;;;;5046452;28;20025;-76
2021/04/02 07:53:27;;;;;;;16.13;8.03;;;6.00;80.60;;;;;;5049084;28;20029;-74
2021/04/02 07:56:05;;;;;;;25.80;13.43;;;6.10;80.60;;;;;;5044538;28;20029;-75
2021/04/02 07:58:32;;;;;;;24.00;12.37;;;6.10;80.80;;;;;;5045988;28;20028;-73
2021/04/02 08:01:00;;;;;;;19.47;11.50;;;6.30;80.80;;;;;;5045055;28;20607;-75
2021/04/02 08:03:27;;;;;;;20.97;10.77;;;6.80;80.20;;;;;;5049019;28;20065;-74
2021/04/02 08:05:58;;;;;;;23.50;10.83;;;6.90;79.10;;;;;;5048758;28;20067;-73
2021/04/02 08:08:26;;;;;;;27.87;14.47;;;7.10;79.10;;;;;;5050574;28;20496;-75
2021/04/02 08:11:04;;;;;;;27.13;14.53;;;7.20;78.10;;;;;;5047699;28;20070;-74
2021/04/02 08:13:44;;;;;;;27.70;16.17;;;7.60;78.60;;;;;;5048987;28;20037;-74
2021/04/02 08:16:32;;;;;;;17.07;10.07;;;7.90;77.40;;;;;;5047331;28;20037;-75
2021/04/02 08:19:09;;;;;;;27.37;16.43;;;8.40;76.20;;;;;;5049572;28;20064;-73
2021/04/02 08:21:42;;;;;;;28.20;14.57;;;8.60;75.40;;;;;;5048081;28;20037;-75
2021/04/02 08:24:10;;;;;;;21.90;13.33;;;8.80;74.90;;;;;;5046897;28;20033;-74
2021/04/02 08:26:37;;;;;;;26.80;14.90;;;8.90;74.00;;;;;;5050173;28;20032;-73
2021/04/02 08:29:05;;;;;;;26.80;14.53;;;9.10;73.50;;;;;;5049660;28;20021;-75
2021/04/02 08:31:31;;;;;;;26.17;14.03;;;9.30;73.30;;;;;;5049686;28;20074;-73
2021/04/02 08:33:57;;;;;;;17.87;8.50;;;9.30;72.20;;;;;;5049475;28;20530;-74
2021/04/02 08:36:24;;;;;;;14.57;8.50;;;9.40;71.40;;;;;;5049533;28;20107;-74
2021/04/02 08:38:50;;;;;;;14.90;7.27;;;9.50;70.80;;;;;;5047659;28;20456;-73
2021/04/02 08:41:29;;;;;;;15.03;7.47;;;9.60;70.10;;;;;;5049773;28;20052;-73
2021/04/02 08:43:56;;;;;;;15.77;7.70;;;9.60;69.20;;;;;;5047635;28;20052;-73
2021/04/02 08:46:43;;;;;;;13.23;5.93;;;9.70;69.10;;;;;;5049811;28;20033;-73
2021/04/02 08:49:11;;;;;;;19.23;7.43;;;10.00;67.30;;;;;;5048654;28;20041;-74
2021/04/02 08:51:38;;;;;;;18.40;10.23;;;10.10;67.30;;;;;;5049690;28;20033;-73
2021/04/02 08:54:04;;;;;;;24.03;10.03;;;10.00;67.90;;;;;;5048134;28;20057;-75
2021/04/02 08:56:32;;;;;;;25.37;10.93;;;10.30;67.80;;;;;;5048567;28;20401;-74
2021/04/02 08:59:06;;;;;;;16.23;5.40;;;10.60;67.00;;;;;;5049564;28;20508;-72
2021/04/02 09:01:31;;;;;;;18.27;6.20;;;10.90;65.20;;;;;;5053276;28;20032;-73
2021/04/02 09:03:57;;;;;;;17.47;8.27;;;10.90;64.90;;;;;;5051003;28;20419;-74
2021/04/02 09:06:23;;;;;;;10.83;5.20;;;11.00;65.00;;;;;;5054069;28;20094;-73
2021/04/02 09:08:49;;;;;;;17.37;7.10;;;11.00;63.90;;;;;;5052384;28;20028;-80
2021/04/02 09:11:15;;;;;;;9.23;4.73;;;10.90;64.60;;;;;;5052269;28;20037;-76
2021/04/02 09:13:47;;;;;;;14.93;4.20;;;11.00;63.60;;;;;;5053825;28;20045;-74
2021/04/02 09:16:15;;;;;;;14.65;4.57;;;10.80;63.10;;;;;;5053002;28;20465;-74
2021/04/02 09:18:45;;;;;;;11.03;5.63;;;10.60;63.20;;;;;;5052565;28;20059;-73
2021/04/02 09:21:11;;;;;;;10.30;3.93;;;11.00;64.20;;;;;;5052837;28;20477;-75
2021/04/02 09:23:38;;;;;;;11.47;3.83;;;11.20;62.40;;;;;;5051237;28;20044;-73
2021/04/02 09:26:06;;;;;;;14.03;7.50;;;11.50;61.60;;;;;;5016619;28;20199;-73
2021/04/02 09:28:36;;;;;;;16.50;7.73;;;11.60;61.60;;;;;;5053188;28;20029;-73
2021/04/02 09:31:15;;;;;;;18.50;8.97;;;11.70;61.30;;;;;;5049088;28;20028;-73
2021/04/02 09:33:41;;;;;;;16.17;5.10;;;11.90;61.20;;;;;;5049304;28;20377;-74
2021/04/02 09:36:09;;;;;;;7.80;2.80;;;12.40;59.30;;;;;;5051926;28;20500;-73
2021/04/02 09:38:35;;;;;;;9.13;3.80;;;12.30;56.90;;;;;;5053208;28;20017;-73
2021/04/02 09:41:02;;;;;;;9.97;3.73;;;12.20;58.80;;;;;;5050024;28;20384;-74
2021/04/02 09:43:49;;;;;;;12.43;3.30;;;12.90;57.50;;;;;;5049782;28;20041;-73
2021/04/02 09:46:36;;;;;;;7.77;3.53;;;12.80;55.40;;;;;;5052313;28;20028;-74
2021/04/02 09:49:09;;;;;;;7.03;3.60;;;13.20;56.40;;;;;;5048276;28;20037;-73
2021/04/02 09:51:35;;;;;;;;;;;13.70;55.60;;;;;;5051823;28;20032;-74
2021/04/02 09:54:01;;;;;;;8.87;3.00;;;13.90;53.00;;;;;;5044360;28;19954;-75
2021/04/02 09:56:27;;;;;;;8.20;2.83;;;13.90;52.90;;;;;;5052186;28;20051;-74
2021/04/02 09:58:53;;;;;;;9.57;2.57;;;13.70;52.90;;;;;;5052338;28;20032;-73
2021/04/02 10:01:20;;;;;;;8.07;2.30;;;13.40;53.30;;;;;;5052477;28;20120;-73
2021/04/02 10:03:46;;;;;;;10.60;2.50;;;13.30;54.50;;;;;;5050861;28;20618;-73
2021/04/02 10:06:11;;;;;;;8.57;1.98;;;14.10;54.90;;;;;;5051683;28;20069;-75
2021/04/02 10:08:37;;;;;;;8.75;1.73;;;14.50;51.00;;;;;;5051209;28;20469;-74
2021/04/02 10:11:03;;;;;;;11.90;2.30;;;14.00;50.80;;;;;;5049668;28;20120;-74
2021/04/02 10:13:29;;;;;;;9.68;2.80;;;13.80;51.60;;;;;;5051945;28;20029;-74
2021/04/02 10:15:54;;;;;;;11.67;2.90;;;13.40;52.30;;;;;;5052648;28;20437;-74
2021/04/02 10:18:21;;;;;;;6.40;2.20;;;12.90;54.50;;;;;;5051182;28;20036;-74
2021/04/02 10:20:47;;;;;;;13.63;5.00;;;13.00;54.40;;;;;;5051584;28;20036;-74
2021/04/02 10:23:13;;;;;;;12.40;4.40;;;13.00;54.50;;;;;;5067699;28;20044;-75
2021/04/02 10:25:38;;;;;;;13.37;4.90;;;13.10;54.50;;;;;;5049807;28;20508;-75
2021/04/02 10:28:04;;;;;;;10.60;2.90;;;13.30;53.90;;;;;;5048874;28;20412;-75
2021/04/02 10:30:30;;;;;;;10.50;3.07;;;13.20;53.40;;;;;;5049463;28;20035;-73
2021/04/02 10:32:55;;;;;;;10.20;3.50;;;12.90;53.80;;;;;;5049650;28;20029;-79
2021/04/02 10:35:21;;;;;;;9.80;3.40;;;12.80;54.50;;;;;;5046709;28;20033;-74
2021/04/02 10:37:47;;;;;;;10.63;3.33;;;12.90;54.60;;;;;;5050284;28;20389;-74
2021/04/02 10:40:14;;;;;;;8.83;2.97;;;12.50;54.70;;;;;;5050832;28;20029;-72
2021/04/02 10:42:39;;;;;;;9.87;3.87;;;12.00;55.90;;;;;;5047901;28;20036;-78
2021/04/02 10:45:06;;;;;;;8.07;3.17;;;11.80;57.20;;;;;;5046427;28;20057;-79
2021/04/02 10:47:32;;;;;;;10.73;3.90;;;11.90;56.60;;;;;;5047034;28;20041;-75
2021/04/02 10:49:57;;;;;;;11.57;5.33;;;12.10;56.50;;;;;;5047654;28;20093;-74
2021/04/02 10:52:23;;;;;;;13.50;4.90;;;12.40;56.50;;;;;;5050897;28;20109;-74
2021/04/02 10:54:49;;;;;;;17.90;3.47;;;12.50;55.70;;;;;;5048574;28;20040;-76
2021/04/02 10:57:15;;;;;;;28.37;4.13;;;12.60;55.30;;;;;;5047072;28;20043;-75
2021/04/02 10:59:42;;;;;;;29.27;4.33;;;12.50;55.30;;;;;;5049645;28;20479;-75
2021/04/02 11:02:08;;;;;;;22.30;4.27;;;12.50;55.10;;;;;;5049736;28;20040;-74
2021/04/02 11:04:33;;;;;;;12.47;3.40;;;12.40;54.20;;;;;;5051791;28;20091;-74
2021/04/02 11:06:59;;;;;;;14.77;4.80;;;12.30;54.10;;;;;;5049046;28;20033;-74
2021/04/02 11:09:25;;;;;;;13.70;4.33;;;12.40;54.70;;;;;;5047551;28;20083;-73
2021/04/02 11:11:50;;;;;;;17.00;6.10;;;12.40;54.00;;;;;;5047529;28;20477;-74
2021/04/02 11:14:16;;;;;;;12.13;4.40;;;12.50;54.10;;;;;;5029720;28;20037;-73
2021/04/02 11:16:42;;;;;;;14.40;5.03;;;12.50;53.10;;;;;;5048665;28;20033;-74
2021/04/02 11:19:07;;;;;;;13.17;5.73;;;12.30;52.70;;;;;;5046699;28;20064;-79
2021/04/02 11:21:33;;;;;;;11.13;3.90;;;12.70;54.20;;;;;;5048277;28;20068;-75
2021/04/02 11:23:59;;;;;;;7.80;1.80;;;13.00;52.30;;;;;;5048046;28;20396;-75
2021/04/02 11:26:24;;;;;;;11.43;2.83;;;13.20;50.70;;;;;;5046230;28;20434;-75
2021/04/02 11:28:51;;;;;;;11.57;3.30;;;13.20;50.90;;;;;;5047722;28;20079;-75
2021/04/02 11:31:18;;;;;;;7.57;3.13;;;13.40;50.50;;;;;;5046601;28;20037;-72
2021/04/02 11:33:43;;;;;;;12.80;3.67;;;13.60;50.20;;;;;;5049353;28;20047;-79
2021/04/02 11:36:09;;;;;;;8.85;3.35;;;13.90;49.60;;;;;;5047474;28;20112;-78
2021/04/02 11:38:36;;;;;;;10.55;3.58;;;14.20;49.10;;;;;;5046984;28;20025;-74
2021/04/02 11:41:02;;;;;;;8.85;2.38;;;14.40;48.50;;;;;;5046662;28;20044;-74
2021/04/02 11:43:28;;;;;;;8.45;2.78;;;14.70;47.40;;;;;;5046302;28;20087;-74
2021/04/02 11:45:53;;;;;;;10.95;2.75;;;15.00;47.20;;;;;;5047979;28;20032;-75
2021/04/02 11:48:19;;;;;;;5.80;2.03;;;15.30;46.30;;;;;;5046242;28;20052;-73
2021/04/02 11:50:45;;;;;;;6.07;2.08;;;15.30;45.70;;;;;;5046343;28;20021;-76
2021/04/02 11:53:10;;;;;;;8.02;2.88;;;15.20;45.60;;;;;;5046314;28;20033;-79
2021/04/02 11:55:36;;;;;;;6.35;1.92;;;15.20;45.70;;;;;;5046663;28;20036;-74
2021/04/02 11:58:02;;;;;;;8.85;2.63;;;15.20;44.60;;;;;;5047341;28;20037;-76
2021/04/02 12:00:28;;;;;;;7.97;2.25;;;15.10;45.10;;;;;;5071722;28;20032;-73
2021/04/02 12:02:55;;;;;;;9.70;1.85;;;15.20;45.50;;;;;;5046337;28;20041;-73
2021/04/02 12:05:24;;;;;;;6.97;2.40;;;15.20;45.20;;;;;;5044962;28;20025;-74
2021/04/02 12:07:51;;;;;;;8.38;2.10;;;15.20;45.90;;;;;;5047428;28;20105;-74
2021/04/02 12:10:17;;;;;;;7.22;2.03;;;15.30;44.90;;;;;;5045464;28;20029;-79
2021/04/02 12:12:43;;;;;;;6.70;2.45;;;15.00;44.90;;;;;;5047604;28;20029;-74
2021/04/02 12:15:09;;;;;;;4.90;1.38;;;14.70;45.40;;;;;;5046793;28;20059;-75
2021/04/02 12:17:36;;;;;;;5.10;1.65;;;14.80;45.30;;;;;;5046786;28;20032;-75
2021/04/02 12:20:04;;;;;;;7.55;1.92;;;15.00;44.90;;;;;;5048183;28;20036;-74
2021/04/02 12:22:29;;;;;;;5.88;1.20;;;15.10;44.50;;;;;;5048657;28;20021;-76
2021/04/02 12:24:55;;;;;;;7.15;1.58;;;15.20;43.70;;;;;;5047681;28;20455;-76
2021/04/02 12:27:20;;;;;;;7.55;1.50;;;15.10;44.50;;;;;;5045104;28;20480;-74
2021/04/02 12:29:46;;;;;;;6.95;1.60;;;14.90;44.20;;;;;;5047471;28;20501;-74
2021/04/02 12:32:12;;;;;;;6.53;1.55;;;14.60;45.50;;;;;;5045780;28;20032;-74
2021/04/02 12:34:38;;;;;;;5.28;1.10;;;14.40;45.60;;;;;;5045385;28;20021;-74
2021/04/02 12:37:04;;;;;;;6.07;1.70;;;14.40;45.80;;;;;;5047083;28;20170;-74
2021/04/02 12:39:30;;;;;;;8.98;1.40;;;14.80;46.20;;;;;;5028726;28;20025;-74
2021/04/02 12:41:55;;;;;;;5.32;1.85;;;15.00;44.40;;;;;;5045212;28;20028;-74
2021/04/02 12:44:22;;;;;;;5.22;2.05;;;14.90;44.50;;;;;;5045513;28;20412;-75
2021/04/02 12:46:48;;;;;;;5.57;1.95;;;15.00;45.20;;;;;;5044788;28;20040;-74
2021/04/02 12:49:14;;;;;;;4.75;1.88;;;15.10;44.30;;;;;;5046546;28;20460;-78
2021/04/02 12:51:40;;;;;;;6.70;1.20;;;15.10;44.10;;;;;;5044252;28;20041;-74